Terminal Aerodrome Forecast
Issued by NWS Jackson, MS

Home | Current Version | Previous Version | Text Only | Print | Product List | Glossary On
Versions: 1 2 3 4 5 6 7 8 9 10 11 12 13 14 15 16 17 18 19
758
FTUS44 KJAN 242044 AAA
TAFGLH
TAF AMD
KGLH 242044Z 2421/2518 18024G30KT P6SM SCT025 OVC100
     FM242200 19025G32KT P6SM VCSH SCT025 BKN040
     FM250100 19020G30KT P6SM VCTS BKN020 OVC030CB
     FM250300 20025G35KT 2SM +TSRA BKN012 OVC025CB
     FM250500 27018G25KT 4SM RA BR BKN010 OVC020
     FM250900 35010KT P6SM OVC040=

USA.gov is the U.S. government's official web portal to all federal, state and local government web resources and services.